createdAt,value
2023-05-20T00:00:35.467Z,13.04
2023-05-20T00:03:02.184Z,12.85
2023-05-20T00:05:28.802Z,12.99
2023-05-20T00:07:55.326Z,12.76
2023-05-20T00:10:21.914Z,12.81
2023-05-20T00:12:48.368Z,12.85
2023-05-20T00:15:15.036Z,12.69
2023-05-20T00:17:41.733Z,12.59
2023-05-20T00:20:08.654Z,12.61
2023-05-20T00:22:35.382Z,12.45
2023-05-20T00:25:01.979Z,12.38
2023-05-20T00:27:28.463Z,12.61
2023-05-20T00:29:55.117Z,12.59
2023-05-20T00:32:21.753Z,12.39
2023-05-20T00:35:01.275Z,12.43
2023-05-20T00:37:28.069Z,12.46
2023-05-20T00:39:55.018Z,12.39
2023-05-20T00:42:22.850Z,12.52
2023-05-20T00:44:50.483Z,12.66
2023-05-20T00:47:19.476Z,12.55
2023-05-20T00:49:49.620Z,12.47
2023-05-20T00:52:19.428Z,12.34
2023-05-20T00:54:46.373Z,12.37
2023-05-20T00:57:13.737Z,12.30
2023-05-20T00:59:41.841Z,12.29
2023-05-20T01:02:10.091Z,12.23
2023-05-20T01:04:37.028Z,12.16
2023-05-20T01:07:05.807Z,12.23
2023-05-20T01:09:33.319Z,12.31
2023-05-20T01:12:10.706Z,12.21
2023-05-20T01:14:46.936Z,12.23
2023-05-20T01:17:17.897Z,12.29
2023-05-20T01:19:49.116Z,12.58
2023-05-20T01:22:16.232Z,12.26
2023-05-20T01:24:44.790Z,12.34
2023-05-20T01:27:13.647Z,12.30
2023-05-20T01:29:43.002Z,12.20
2023-05-20T01:32:22.965Z,12.17
2023-05-20T01:34:52.064Z,12.30
2023-05-20T01:37:19.632Z,12.40
2023-05-20T01:39:47.445Z,12.25
2023-05-20T01:42:16.119Z,12.16
2023-05-20T01:44:43.840Z,12.23
2023-05-20T01:47:10.713Z,12.33
2023-05-20T01:49:37.395Z,12.24
2023-05-20T01:52:04.750Z,12.32
2023-05-20T01:54:31.414Z,12.20
2023-05-20T01:56:58.497Z,12.32
2023-05-20T01:59:25.086Z,12.21
2023-05-20T02:01:51.755Z,12.39
2023-05-20T02:04:19.243Z,12.35
2023-05-20T02:06:46.277Z,12.39
2023-05-20T02:09:13.026Z,12.34
2023-05-20T02:11:39.822Z,12.25
2023-05-20T02:14:06.464Z,12.47
2023-05-20T02:16:33.232Z,12.33
2023-05-20T02:19:00.027Z,12.40
2023-05-20T02:21:26.699Z,12.20
2023-05-20T02:23:53.706Z,12.07
2023-05-20T02:26:20.805Z,12.05
2023-05-20T02:28:50.612Z,12.04
2023-05-20T02:31:17.775Z,12.06
2023-05-20T02:33:45.262Z,12.32
2023-05-20T02:36:59.334Z,12.17
2023-05-20T02:39:26.039Z,12.18
2023-05-20T02:41:52.578Z,12.09
2023-05-20T02:44:19.180Z,12.04
2023-05-20T02:46:45.871Z,11.99
2023-05-20T02:49:12.488Z,11.95
2023-05-20T02:51:39.923Z,12.10
2023-05-20T02:54:07.002Z,11.99
2023-05-20T02:56:34.327Z,12.06
2023-05-20T02:59:01.795Z,11.98
2023-05-20T03:01:29.610Z,11.99
2023-05-20T03:03:56.254Z,11.95
2023-05-20T03:06:23.006Z,12.07
2023-05-20T03:08:49.757Z,12.06
2023-05-20T03:11:16.565Z,12.00
2023-05-20T03:13:43.185Z,12.09
2023-05-20T03:16:10.409Z,12.00
2023-05-20T03:18:37.358Z,12.08
2023-05-20T03:21:04.902Z,12.00
2023-05-20T03:23:31.477Z,11.99
2023-05-20T03:25:58.061Z,12.10
2023-05-20T03:28:24.613Z,12.16
2023-05-20T03:30:51.155Z,12.12
2023-05-20T03:33:17.779Z,12.09
2023-05-20T03:35:44.322Z,12.04
2023-05-20T03:38:10.923Z,12.23
2023-05-20T03:40:38.822Z,12.37
2023-05-20T03:43:05.730Z,12.41
2023-05-20T03:45:34.573Z,12.00
2023-05-20T03:48:07.102Z,12.25
2023-05-20T03:50:35.454Z,12.12
2023-05-20T03:53:02.257Z,12.20
2023-05-20T03:55:35.485Z,12.24
2023-05-20T03:58:02.782Z,12.27
2023-05-20T04:00:31.511Z,12.28
2023-05-20T04:02:58.727Z,12.43
2023-05-20T04:05:25.371Z,12.54
2023-05-20T04:07:52.056Z,12.46
2023-05-20T04:10:20.996Z,12.51
2023-05-20T04:12:47.738Z,13.02
2023-05-20T04:15:14.730Z,13.88
2023-05-20T04:18:08.192Z,14.70
2023-05-20T04:20:35.954Z,14.83
2023-05-20T04:23:02.618Z,15.04
2023-05-20T04:25:29.046Z,16.13
2023-05-20T04:27:57.631Z,16.96
2023-05-20T04:30:24.493Z,17.48
2023-05-20T04:32:51.297Z,17.58
2023-05-20T04:35:18.309Z,18.20
2023-05-20T04:37:49.601Z,18.39
2023-05-20T04:40:17.142Z,18.69
2023-05-20T04:42:45.003Z,18.72
2023-05-20T04:45:13.714Z,19.11
2023-05-20T04:47:41.863Z,18.38
2023-05-20T04:50:10.839Z,18.61
2023-05-20T04:52:45.887Z,18.90
2023-05-20T04:55:13.270Z,19.53
2023-05-20T04:57:41.812Z,19.15
2023-05-20T05:00:10.770Z,19.63
2023-05-20T05:02:38.352Z,19.53
2023-05-20T05:05:05.775Z,19.46
2023-05-20T05:07:32.524Z,20.07
2023-05-20T05:09:59.141Z,21.64
2023-05-20T05:12:27.697Z,21.70
2023-05-20T05:14:54.217Z,22.66
2023-05-20T05:17:20.923Z,22.08
2023-05-20T05:19:47.545Z,21.57
2023-05-20T05:22:14.125Z,22.87
2023-05-20T05:24:40.671Z,22.42
2023-05-20T05:27:07.235Z,22.88
2023-05-20T05:29:34.193Z,21.80
2023-05-20T05:32:01.833Z,22.94
2023-05-20T05:34:28.440Z,22.83
2023-05-20T05:36:55.066Z,20.28
2023-05-20T05:39:21.764Z,22.65
2023-05-20T05:41:48.365Z,21.40
2023-05-20T05:44:15.604Z,21.39
2023-05-20T05:46:42.470Z,20.86
2023-05-20T05:49:09.149Z,21.88
2023-05-20T05:51:38.256Z,21.59
2023-05-20T05:54:05.739Z,22.11
2023-05-20T05:56:32.394Z,22.12
2023-05-20T05:58:58.965Z,19.92
2023-05-20T06:01:25.661Z,21.50
2023-05-20T06:03:52.471Z,21.91
2023-05-20T06:06:19.912Z,21.43
2023-05-20T06:08:48.095Z,20.88
2023-05-20T06:11:15.405Z,20.53
2023-05-20T06:13:42.319Z,20.68
2023-05-20T06:16:09.039Z,21.19
2023-05-20T06:18:35.678Z,19.65
2023-05-20T06:21:04.779Z,20.32
2023-05-20T06:23:31.701Z,20.83
2023-05-20T06:26:01.151Z,20.61
2023-05-20T06:28:29.567Z,18.54
2023-05-20T06:30:57.522Z,19.31
2023-05-20T06:33:27.401Z,19.67
2023-05-20T06:35:58.359Z,19.78
2023-05-20T06:38:25.360Z,20.55
2023-05-20T06:40:51.968Z,20.39
2023-05-20T06:43:18.858Z,21.46
2023-05-20T06:45:52.288Z,21.04
2023-05-20T06:48:33.276Z,20.49
2023-05-20T06:51:00.421Z,20.34
2023-05-20T06:53:27.643Z,20.94
2023-05-20T06:55:55.965Z,20.27
2023-05-20T06:58:23.209Z,19.11
2023-05-20T07:00:49.833Z,19.32
2023-05-20T07:03:16.965Z,19.24
2023-05-20T07:05:44.701Z,19.63
2023-05-20T07:08:11.915Z,20.02
2023-05-20T07:10:38.686Z,19.97
2023-05-20T07:13:05.517Z,19.71
2023-05-20T07:15:32.271Z,20.20
2023-05-20T07:17:59.341Z,20.29
2023-05-20T07:20:26.327Z,20.15
2023-05-20T07:22:53.290Z,20.42
2023-05-20T07:25:40.822Z,20.19
2023-05-20T07:28:07.759Z,19.65
2023-05-20T07:30:34.346Z,19.63
2023-05-20T07:33:21.217Z,20.09
2023-05-20T07:35:48.925Z,19.77
2023-05-20T07:38:15.665Z,20.10
2023-05-20T07:40:43.524Z,20.28
2023-05-20T07:43:10.220Z,20.06
2023-05-20T07:45:38.016Z,20.05
2023-05-20T07:48:06.381Z,20.48
2023-05-20T07:50:34.198Z,20.65
2023-05-20T07:53:01.160Z,20.56
2023-05-20T07:55:30.159Z,20.04
2023-05-20T07:57:57.181Z,20.04
2023-05-20T08:00:24.831Z,20.03
2023-05-20T08:02:52.012Z,20.42
2023-05-20T08:05:25.534Z,20.05
2023-05-20T08:07:52.267Z,20.06
2023-05-20T08:10:21.110Z,20.63
2023-05-20T08:12:48.017Z,20.17
2023-05-20T08:15:14.749Z,20.56
2023-05-20T08:17:41.544Z,20.55
2023-05-20T08:20:09.904Z,20.22
2023-05-20T08:22:37.570Z,20.18
2023-05-20T08:25:08.063Z,20.13
2023-05-20T08:27:36.162Z,20.50
2023-05-20T08:30:05.054Z,20.65
2023-05-20T08:32:31.711Z,20.86
2023-05-20T08:35:02.858Z,21.18
2023-05-20T08:37:30.009Z,21.26
2023-05-20T08:39:56.638Z,21.64
2023-05-20T08:42:24.736Z,21.57
2023-05-20T08:44:54.316Z,21.79
2023-05-20T08:47:22.043Z,22.32
2023-05-20T08:49:49.475Z,22.00
2023-05-20T08:52:18.112Z,21.79
2023-05-20T08:54:48.020Z,21.17
2023-05-20T08:57:14.674Z,21.51
2023-05-20T08:59:46.824Z,21.89
2023-05-20T09:02:14.290Z,22.39
2023-05-20T09:04:41.131Z,22.29
2023-05-20T09:07:07.742Z,22.69
2023-05-20T09:09:35.247Z,22.21
2023-05-20T09:12:03.243Z,21.91
2023-05-20T09:14:31.022Z,21.67
2023-05-20T09:16:57.742Z,21.88
2023-05-20T09:19:24.785Z,22.15
2023-05-20T09:21:54.097Z,22.44
2023-05-20T09:24:24.253Z,22.46
2023-05-20T09:26:51.328Z,22.02
2023-05-20T09:29:19.656Z,21.72
2023-05-20T09:31:46.648Z,21.97
2023-05-20T09:34:13.793Z,22.59
2023-05-20T09:36:41.699Z,22.67
2023-05-20T09:39:12.760Z,22.55
2023-05-20T09:41:47.409Z,22.29
2023-05-20T09:44:16.331Z,22.62
2023-05-20T09:46:45.901Z,21.87
2023-05-20T09:49:13.135Z,21.91
2023-05-20T09:51:41.908Z,21.88
2023-05-20T09:54:09.424Z,22.36
2023-05-20T09:56:36.859Z,22.13
2023-05-20T09:59:05.321Z,22.37
2023-05-20T10:01:31.954Z,21.96
2023-05-20T10:03:59.914Z,21.85
2023-05-20T10:06:43.574Z,22.46
2023-05-20T10:09:23.364Z,22.77
2023-05-20T10:12:12.865Z,23.20
2023-05-20T10:15:11.580Z,22.86
2023-05-20T10:17:47.548Z,23.41
2023-05-20T10:20:14.318Z,23.39
2023-05-20T10:22:41.093Z,23.18
2023-05-20T10:25:13.129Z,23.52
2023-05-20T10:27:46.938Z,23.24
2023-05-20T10:30:21.286Z,23.38
2023-05-20T10:32:57.468Z,23.50
2023-05-20T10:35:27.628Z,22.64
2023-05-20T10:38:06.257Z,22.11
2023-05-20T10:40:33.106Z,22.98
2023-05-20T10:43:09.784Z,22.11
2023-05-20T10:45:54.898Z,22.83
2023-05-20T10:48:33.016Z,22.70
2023-05-20T10:51:04.284Z,23.05
2023-05-20T10:53:39.713Z,23.30
2023-05-20T10:56:06.867Z,23.59
2023-05-20T10:58:38.673Z,23.59
2023-05-20T11:01:06.301Z,23.60
2023-05-20T11:03:50.309Z,23.45
2023-05-20T11:06:19.065Z,23.17
2023-05-20T11:08:46.636Z,24.00
2023-05-20T11:11:14.995Z,23.73
2023-05-20T11:13:42.392Z,23.79
2023-05-20T11:16:09.466Z,23.22
2023-05-20T11:18:36.524Z,22.87
2023-05-20T11:21:04.031Z,23.11
2023-05-20T11:23:30.964Z,23.49
2023-05-20T11:25:57.947Z,23.59
2023-05-20T11:28:25.170Z,23.83
2023-05-20T11:30:52.803Z,24.26
2023-05-20T11:33:19.806Z,24.11
2023-05-20T11:35:47.291Z,23.96
2023-05-20T11:38:14.254Z,24.87
2023-05-20T11:40:56.752Z,24.90
2023-05-20T11:43:24.249Z,25.00
2023-05-20T11:45:56.095Z,24.58
2023-05-20T11:48:23.884Z,25.12
2023-05-20T11:50:50.600Z,25.48
2023-05-20T11:53:21.679Z,25.12
2023-05-20T11:55:56.657Z,25.01
2023-05-20T11:58:24.029Z,25.49
2023-05-20T12:00:56.795Z,25.37
2023-05-20T12:03:26.257Z,25.56
2023-05-20T12:05:53.921Z,25.68
2023-05-20T12:08:20.472Z,25.36
2023-05-20T12:10:47.294Z,25.29
2023-05-20T12:13:13.836Z,25.30
2023-05-20T12:15:41.128Z,24.97
2023-05-20T12:18:08.047Z,24.45
2023-05-20T12:20:35.116Z,24.82
2023-05-20T12:23:02.207Z,24.35
2023-05-20T12:25:29.076Z,24.54
2023-05-20T12:27:56.237Z,24.03
2023-05-20T12:30:24.170Z,23.68
2023-05-20T12:32:52.090Z,23.85
2023-05-20T12:35:26.517Z,23.46
2023-05-20T12:37:53.394Z,23.24
2023-05-20T12:40:20.062Z,23.31
2023-05-20T12:42:46.570Z,23.40
2023-05-20T12:45:13.449Z,23.62
2023-05-20T12:47:40.092Z,23.97
2023-05-20T12:50:07.093Z,23.98
2023-05-20T12:52:33.684Z,24.61
2023-05-20T12:55:00.285Z,24.61
2023-05-20T12:57:27.129Z,24.98
2023-05-20T12:59:53.824Z,25.55
2023-05-20T13:02:21.053Z,25.64
2023-05-20T13:04:47.822Z,24.64
2023-05-20T13:07:14.507Z,24.92
2023-05-20T13:09:41.123Z,24.70
2023-05-20T13:12:08.073Z,24.56
2023-05-20T13:14:34.685Z,24.60
2023-05-20T13:17:01.307Z,24.76
2023-05-20T13:19:28.168Z,25.50
2023-05-20T13:21:54.802Z,24.91
2023-05-20T13:24:21.859Z,25.31
2023-05-20T13:26:48.529Z,25.02
2023-05-20T13:29:15.179Z,25.01
2023-05-20T13:31:42.200Z,25.63
2023-05-20T13:34:08.910Z,24.85
2023-05-20T13:36:35.567Z,24.64
2023-05-20T13:39:02.823Z,24.53
2023-05-20T13:41:30.672Z,24.62
2023-05-20T13:43:57.300Z,24.58
2023-05-20T13:46:24.272Z,24.89
2023-05-20T13:48:50.882Z,24.87
2023-05-20T13:51:17.658Z,24.45
2023-05-20T13:53:44.232Z,24.28
2023-05-20T13:56:11.132Z,24.79
2023-05-20T13:58:38.368Z,25.09
2023-05-20T14:01:06.191Z,24.98
2023-05-20T14:03:37.451Z,24.41
2023-05-20T14:06:04.462Z,24.28
2023-05-20T14:08:31.349Z,23.73
2023-05-20T14:10:57.952Z,23.80
2023-05-20T14:13:25.521Z,24.20
2023-05-20T14:15:54.539Z,24.36
2023-05-20T14:18:21.511Z,24.47
2023-05-20T14:20:48.164Z,24.49
2023-05-20T14:23:14.761Z,25.27
2023-05-20T14:25:41.463Z,24.89
2023-05-20T14:28:08.052Z,25.37
2023-05-20T14:30:35.045Z,25.47
2023-05-20T14:33:01.870Z,25.07
2023-05-20T14:35:28.451Z,25.14
2023-05-20T14:37:55.090Z,24.25
2023-05-20T14:40:21.940Z,25.13
2023-05-20T14:42:48.518Z,24.80
2023-05-20T14:45:15.159Z,25.37
2023-05-20T14:47:41.796Z,25.55
2023-05-20T14:50:08.709Z,25.06
2023-05-20T14:52:35.368Z,24.52
2023-05-20T14:55:01.888Z,24.42
2023-05-20T14:57:28.549Z,24.01
2023-05-20T14:59:55.511Z,23.65
2023-05-20T15:02:22.328Z,23.91
2023-05-20T15:04:48.984Z,23.69
2023-05-20T15:07:15.604Z,23.71
2023-05-20T15:09:43.735Z,23.65
2023-05-20T15:12:11.280Z,24.00
2023-05-20T15:14:38.087Z,23.91
2023-05-20T15:17:05.265Z,24.11
2023-05-20T15:19:32.804Z,24.36
2023-05-20T15:21:59.992Z,24.34
2023-05-20T15:24:26.668Z,24.05
2023-05-20T15:26:54.222Z,24.04
2023-05-20T15:29:21.614Z,24.24
2023-05-20T15:31:48.210Z,24.30
2023-05-20T15:34:15.029Z,24.30
2023-05-20T15:36:41.641Z,24.42
2023-05-20T15:39:08.263Z,24.58
2023-05-20T15:41:34.855Z,24.54
2023-05-20T15:44:02.312Z,24.46
2023-05-20T15:46:29.027Z,24.16
2023-05-20T15:48:57.894Z,24.04
2023-05-20T15:51:24.528Z,24.02
2023-05-20T15:53:51.047Z,24.06
2023-05-20T15:56:17.711Z,24.07
2023-05-20T15:58:44.474Z,23.93
2023-05-20T16:01:11.204Z,23.95
2023-05-20T16:03:37.886Z,24.31
2023-05-20T16:06:04.710Z,24.19
2023-05-20T16:08:31.463Z,23.72
2023-05-20T16:10:58.188Z,24.10
2023-05-20T16:13:24.756Z,23.78
2023-05-20T16:15:51.933Z,23.97
2023-05-20T16:18:19.040Z,23.74
2023-05-20T16:20:45.595Z,23.46
2023-05-20T16:23:12.282Z,23.61
2023-05-20T16:25:38.896Z,23.46
2023-05-20T16:28:06.794Z,23.40
2023-05-20T16:30:35.197Z,23.21
2023-05-20T16:33:02.104Z,23.19
2023-05-20T16:35:28.853Z,23.31
2023-05-20T16:37:55.409Z,23.10
2023-05-20T16:40:22.383Z,23.06
2023-05-20T16:42:48.997Z,23.13
2023-05-20T16:45:15.728Z,23.17
2023-05-20T16:47:42.366Z,23.03
2023-05-20T16:50:09.845Z,23.08
2023-05-20T16:52:37.835Z,23.03
2023-05-20T16:55:07.921Z,22.93
2023-05-20T16:57:35.562Z,22.73
2023-05-20T17:00:06.830Z,23.11
2023-05-20T17:02:33.503Z,22.81
2023-05-20T17:05:00.016Z,22.96
2023-05-20T17:07:26.710Z,23.13
2023-05-20T17:09:53.337Z,22.68
2023-05-20T17:12:19.852Z,22.51
2023-05-20T17:14:46.541Z,22.66
2023-05-20T17:17:14.929Z,22.39
2023-05-20T17:19:41.933Z,22.39
2023-05-20T17:22:08.542Z,22.34
2023-05-20T17:24:35.791Z,22.29
2023-05-20T17:27:03.698Z,22.35
2023-05-20T17:29:30.506Z,22.05
2023-05-20T17:31:57.379Z,22.32
2023-05-20T17:34:24.009Z,22.31
2023-05-20T17:36:50.917Z,22.09
2023-05-20T17:39:17.510Z,22.10
2023-05-20T17:41:44.434Z,21.84
2023-05-20T17:44:11.270Z,22.01
2023-05-20T17:46:38.175Z,22.10
2023-05-20T17:49:04.780Z,21.86
2023-05-20T17:51:31.858Z,21.81
2023-05-20T17:53:58.472Z,21.68
2023-05-20T17:56:26.445Z,21.63
2023-05-20T17:58:54.240Z,21.56
2023-05-20T18:01:23.407Z,21.77
2023-05-20T18:03:50.259Z,21.58
2023-05-20T18:06:18.028Z,21.33
2023-05-20T18:08:44.702Z,21.21
2023-05-20T18:11:11.477Z,21.24
2023-05-20T18:13:38.136Z,21.04
2023-05-20T18:16:05.229Z,20.77
2023-05-20T18:18:31.824Z,20.91
2023-05-20T18:20:58.395Z,20.85
2023-05-20T18:23:24.930Z,20.66
2023-05-20T18:25:51.616Z,20.63
2023-05-20T18:28:18.198Z,20.43
2023-05-20T18:30:44.748Z,20.52
2023-05-20T18:33:11.450Z,20.54
2023-05-20T18:35:39.316Z,20.38
2023-05-20T18:38:05.973Z,20.38
2023-05-20T18:40:32.576Z,20.37
2023-05-20T18:42:59.307Z,20.19
2023-05-20T18:45:26.256Z,20.10
2023-05-20T18:47:57.585Z,20.19
2023-05-20T18:50:24.172Z,20.27
2023-05-20T18:52:50.705Z,20.18
2023-05-20T18:55:17.545Z,20.28
2023-05-20T18:57:44.548Z,20.29
2023-05-20T19:00:12.113Z,20.21
2023-05-20T19:02:40.140Z,20.39
2023-05-20T19:05:08.460Z,20.11
2023-05-20T19:07:35.885Z,20.01
2023-05-20T19:10:03.728Z,19.95
2023-05-20T19:12:30.449Z,20.05
2023-05-20T19:14:57.359Z,19.88
2023-05-20T19:17:24.152Z,19.93
2023-05-20T19:19:51.015Z,19.88
2023-05-20T19:22:17.601Z,19.92
2023-05-20T19:24:44.202Z,19.75
2023-05-20T19:27:11.127Z,19.67
2023-05-20T19:29:37.855Z,19.36
2023-05-20T19:32:04.692Z,19.57
2023-05-20T19:34:31.285Z,19.47
2023-05-20T19:36:57.980Z,19.52
2023-05-20T19:39:24.633Z,19.45
2023-05-20T19:41:51.208Z,19.71
2023-05-20T19:44:18.889Z,19.48
2023-05-20T19:46:45.437Z,19.30
2023-05-20T19:49:12.039Z,19.13
2023-05-20T19:51:38.659Z,19.22
2023-05-20T19:54:05.226Z,19.22
2023-05-20T19:56:31.689Z,19.09
2023-05-20T19:59:01.547Z,19.10
2023-05-20T20:01:29.477Z,18.85
2023-05-20T20:03:56.238Z,19.13
2023-05-20T20:06:22.773Z,18.93
2023-05-20T20:08:49.299Z,18.92
2023-05-20T20:11:16.225Z,18.75
2023-05-20T20:13:42.754Z,18.79
2023-05-20T20:16:09.282Z,18.83
2023-05-20T20:18:35.965Z,18.67
2023-05-20T20:21:05.916Z,18.66
2023-05-20T20:23:32.987Z,18.58
2023-05-20T20:25:59.635Z,18.54
2023-05-20T20:28:26.262Z,18.56
2023-05-20T20:30:52.862Z,18.54
2023-05-20T20:33:19.695Z,18.42
2023-05-20T20:35:46.810Z,18.54
2023-05-20T20:38:13.527Z,18.42
2023-05-20T20:40:42.349Z,18.33
2023-05-20T20:43:10.990Z,18.28
2023-05-20T20:45:37.749Z,18.30
2023-05-20T20:48:05.486Z,18.29
2023-05-20T20:50:33.186Z,18.14
2023-05-20T20:52:59.766Z,18.13
2023-05-20T20:55:26.390Z,18.01
2023-05-20T20:57:52.958Z,18.18
2023-05-20T21:00:23.131Z,18.15
2023-05-20T21:02:50.080Z,18.04
2023-05-20T21:05:17.529Z,18.11
2023-05-20T21:07:49.666Z,18.09
2023-05-20T21:10:17.549Z,17.79
2023-05-20T21:12:44.099Z,18.03
2023-05-20T21:15:12.593Z,18.06
2023-05-20T21:17:39.228Z,18.08
2023-05-20T21:20:07.293Z,17.66
2023-05-20T21:22:33.852Z,18.06
2023-05-20T21:25:00.430Z,18.12
2023-05-20T21:27:27.072Z,17.85
2023-05-20T21:29:53.554Z,17.97
2023-05-20T21:32:20.143Z,17.67
2023-05-20T21:34:46.567Z,17.69
2023-05-20T21:37:13.072Z,17.62
2023-05-20T21:39:39.626Z,17.79
2023-05-20T21:42:06.762Z,17.68
2023-05-20T21:44:33.583Z,17.75
2023-05-20T21:47:00.214Z,17.68
2023-05-20T21:49:27.716Z,17.63
2023-05-20T21:51:54.210Z,17.68
2023-05-20T21:54:20.733Z,17.58
2023-05-20T21:56:47.194Z,17.55
2023-05-20T21:59:14.689Z,17.64
2023-05-20T22:17:36.641Z,17.03
2023-05-20T22:20:10.714Z,17.17
2023-05-20T22:22:39.156Z,17.34
2023-05-20T22:25:09.010Z,17.38
2023-05-20T22:27:35.629Z,17.37
2023-05-20T22:30:02.424Z,17.60
2023-05-20T22:32:29.016Z,17.39
2023-05-20T22:34:58.414Z,17.39
2023-05-20T22:37:28.749Z,17.44
2023-05-20T22:39:55.986Z,17.44
2023-05-20T22:42:22.706Z,17.28
2023-05-20T22:44:49.725Z,17.29
2023-05-20T22:47:16.492Z,17.27
2023-05-20T22:49:43.087Z,17.30
2023-05-20T22:52:09.579Z,17.34
2023-05-20T22:54:36.247Z,17.13
2023-05-20T22:57:03.186Z,17.17
2023-05-20T22:59:32.897Z,17.09
2023-05-20T23:01:59.532Z,17.18
2023-05-20T23:04:26.136Z,17.10
2023-05-20T23:06:53.917Z,17.16
2023-05-20T23:09:21.071Z,17.12
2023-05-20T23:11:47.710Z,17.06
2023-05-20T23:14:14.229Z,17.06
2023-05-20T23:16:42.109Z,16.96
2023-05-20T23:19:09.027Z,17.03
2023-05-20T23:21:37.299Z,17.09
2023-05-20T23:24:04.529Z,17.02
2023-05-20T23:26:31.487Z,17.05
2023-05-20T23:28:58.036Z,16.98
2023-05-20T23:31:27.044Z,16.95
2023-05-20T23:33:54.237Z,16.99
2023-05-20T23:36:20.838Z,16.82
2023-05-20T23:38:47.273Z,16.99
2023-05-20T23:41:13.772Z,16.86
2023-05-20T23:43:40.244Z,17.04
2023-05-20T23:46:08.563Z,16.88
2023-05-20T23:48:36.036Z,16.92
2023-05-20T23:51:03.036Z,16.87
2023-05-20T23:53:29.953Z,16.59
2023-05-20T23:55:56.493Z,16.58
2023-05-20T23:58:23.865Z,16.67
